Terminal Aerodrome Forecast
Issued by NWS Pocatello, ID

Home | Current Version | Previous Version | Text Only | Print | Product List | Glossary On
Versions: 1 2 3 4 5 6 7 8 9 10 11 12 13
000
FTUS45 KPIH 301129
TAFBYI
TAF
KBYI 301129Z 3012/3112 22006KT P6SM BKN120
     FM301500 VRB06KT P6SM VCTS SCT100 BKN120CB
     FM302000 26009KT P6SM VCTS FEW100 SCT120CB
     FM310200 22006KT P6SM SCT120=

USA.gov is the U.S. government's official web portal to all federal, state and local government web resources and services.